Latest Weather Observations for Coles Point

IDS60801

Issued at 9:31 am CST Monday 27 April 2015 (issued every 30 minutes, with the page automatically refreshed every 10 minutes)

About weather observations | Map of weather stations | Latest weather observations for SA | Other Formats
Station Details ID: 018191 Name: COLES POINT Lat: -34.37 Lon: 135.37 Height: 28.0 m
Data from the previous 72 hours. | See also: Recent months at Coles Point
Date/Time
CST
Temp
°C
App
Temp
°C
Dew
Point
Rel
Hum
%
Delta-T
°C
Wind Press
QNH
hPa
Press
MSL
hPa
Rain
since 9 am
mm
Dir
 
Spd
km/h
Gust
km/h
Spd
kts
Gust
kts
27/09:30am 13.3 11.0 10.5 83 1.4 SSW 13 17 7 9 1030.1 1030.0 0.0
27/09:00am 13.3 13.2 10.7 84 1.3 E 2 4 1 2 1029.7 1029.6 0.0
27/08:30am 13.4 13.4 11.1 86 1.2 E 2 6 1 3 1029.4 1029.3 0.0
27/08:00am 12.7 12.7 11.1 90 0.8 NNE 2 4 1 2 1029.2 1029.1 0.0
27/07:30am 12.1 11.2 10.7 91 0.7 NE 6 7 3 4 1028.8 1028.7 0.0
27/07:00am 12.0 12.2 10.4 90 0.8 CALM 0 0 0 0 1028.6 1028.5 0.0
27/06:30am 12.1 12.3 10.5 90 0.8 CALM 0 0 0 0 1028.5 1028.4 0.0
27/06:00am 12.1 12.3 10.5 90 0.8 CALM 0 7 0 4 1028.3 1028.2 0.0
27/05:30am 12.1 12.2 10.3 89 0.9 CALM 0 0 0 0 1028.2 1028.1 0.0
27/05:00am 12.4 12.6 10.6 89 0.9 CALM 0 0 0 0 1028.1 1028.0 0.0
27/04:30am 12.3 12.5 10.5 89 0.9 CALM 0 0 0 0 1028.0 1027.9 0.0
27/04:00am 12.4 12.5 10.3 87 1.1 CALM 0 0 0 0 1027.8 1027.7 0.0
27/03:30am 12.2 12.2 9.9 86 1.2 CALM 0 0 0 0 1027.8 1027.7 0.0
27/03:00am 12.3 11.6 10.0 86 1.2 SSE 4 6 2 3 1027.9 1027.8 0.0
27/02:30am 12.0 12.0 9.7 86 1.2 CALM 0 0 0 0 1028.0 1027.9 0.0
27/02:00am 12.3 12.4 10.0 86 1.2 CALM 0 0 0 0 1028.1 1028.0 0.0
27/01:30am 11.9 11.5 9.6 86 1.2 SSE 2 2 1 1 1028.1 1028.0 0.0
27/01:00am 12.3 11.9 9.9 85 1.2 SSE 2 4 1 2 1028.2 1028.1 0.0
27/12:30am 12.5 11.5 10.2 86 1.2 SSE 6 7 3 4 1028.3 1028.2 0.0
27/12:00am 12.7 12.1 10.4 86 1.2 SSE 4 6 2 3 1028.3 1028.2 0.0
 
Date/Time
CST
Temp
°C
App
Temp
°C
Dew
Point
Rel
Hum
%
Delta-T
°C
Wind Press
QNH
hPa
Press
MSL
hPa
Rain
since 9 am
mm
Dir
 
Spd
km/h
Gust
km/h
Spd
kts
Gust
kts
26/11:30pm 12.4 10.8 10.1 86 1.2 S 9 15 5 8 1028.3 1028.2 0.0
26/11:00pm 13.4 11.6 9.3 76 2.1 S 9 19 5 10 1028.5 1028.4 0.0
26/10:30pm 13.5 13.3 9.0 74 2.3 CALM 0 0 0 0 1028.4 1028.3 0.0
26/10:00pm 12.9 12.7 9.0 77 2.0 CALM 0 0 0 0 1028.5 1028.4 0.0
26/09:30pm 13.1 12.9 9.2 77 2.0 CALM 0 0 0 0 1028.4 1028.3 0.0
26/09:00pm 13.4 12.5 9.1 75 2.2 S 4 4 2 2 1028.3 1028.2 0.0
26/08:30pm 13.5 13.0 9.2 75 2.2 S 2 4 1 2 1028.3 1028.2 0.0
26/08:00pm 13.9 12.0 9.1 73 2.4 S 9 13 5 7 1028.2 1028.1 0.0
26/07:30pm 14.0 11.8 9.4 74 2.3 SSW 11 17 6 9 1028.1 1028.0 0.0
26/07:00pm 13.9 12.3 8.7 71 2.6 S 7 9 4 5 1027.8 1027.7 0.0
26/06:30pm 14.2 12.6 8.6 69 2.8 S 7 11 4 6 1027.5 1027.4 0.0
26/06:00pm 14.6 11.4 8.3 66 3.1 S 15 20 8 11 1027.3 1027.2 0.0
26/05:30pm 14.8 11.2 8.5 66 3.2 S 17 24 9 13 1026.9 1026.8 0.0
26/05:00pm 15.3 12.0 8.1 62 3.6 SSW 15 20 8 11 1026.7 1026.6 0.0
26/04:30pm 15.6 13.0 7.6 59 4.0 S 11 15 6 8 1026.5 1026.4 0.0
26/04:00pm 15.6 12.1 7.4 58 4.1 S 15 20 8 11 1026.4 1026.3 0.0
26/03:30pm 15.6 11.9 7.9 60 3.8 S 17 22 9 12 1026.3 1026.2 0.0
26/03:00pm 15.4 11.8 8.4 63 3.5 S 17 24 9 13 1026.3 1026.2 0.0
26/02:30pm 15.0 11.7 9.6 70 2.8 SSW 17 24 9 13 1026.3 1026.2 0.0
26/02:00pm 15.3 10.1 9.0 66 3.2 SSW 26 33 14 18 1026.1 1026.0 0.0
26/01:30pm 16.2 12.6 6.9 54 4.6 SSW 15 20 8 11 1026.2 1026.1 0.0
26/01:00pm 16.1 12.2 7.3 56 4.4 SSW 17 22 9 12 1026.4 1026.3 0.0
26/12:30pm 16.0 11.7 7.0 55 4.4 SSW 19 22 10 12 1026.6 1026.5 0.0
26/12:00pm 15.9 11.0 7.1 56 4.3 S 22 30 12 16 1026.8 1026.7 0.0
26/11:30am 15.9 11.7 8.2 60 3.9 S 20 26 11 14 1026.9 1026.8 0.0
26/11:00am 16.0 11.9 8.5 61 3.8 S 20 28 11 15 1027.0 1026.9 0.0
26/10:30am 15.9 11.8 7.9 59 4.0 S 19 28 10 15 1026.8 1026.7 0.0
26/10:00am 15.4 12.1 8.2 62 3.6 S 15 20 8 11 1026.8 1026.7 0.0
26/09:30am 14.8 12.4 8.7 67 3.1 SSE 11 15 6 8 1026.8 1026.7 0.0
26/09:00am 14.5 12.0 9.7 73 2.5 SSE 13 17 7 9 1026.8 1026.7 0.8
26/08:30am 14.3 11.4 9.5 73 2.5 S 15 20 8 11 1026.5 1026.4 0.8
26/08:00am 13.9 11.4 9.7 76 2.2 S 13 17 7 9 1026.3 1026.2 0.8
26/07:30am 12.8 10.8 10.2 84 1.3 S 11 15 6 8 1025.8 1025.7 0.8
26/07:00am 12.3 11.1 10.4 88 1.0 SSE 7 7 4 4 1025.5 1025.4 0.8
26/06:30am 12.5 11.3 10.4 87 1.1 SSE 7 9 4 5 1025.2 1025.1 0.8
26/06:00am 12.9 11.5 10.8 87 1.1 SSE 9 13 5 7 1024.9 1024.8 0.8
26/05:30am 12.6 10.8 10.7 88 1.0 SSE 11 17 6 9 1024.7 1024.6 0.8
26/05:00am 12.5 10.0 10.9 90 0.8 SSW 15 20 8 11 1024.5 1024.4 0.8
26/04:30am 11.7 9.8 10.6 93 0.6 SSE 11 17 6 9 1024.4 1024.3 0.8
26/04:00am 11.5 11.0 10.6 94 0.5 S 4 6 2 3 1024.1 1024.0 0.8
26/03:30am 11.3 9.4 10.4 94 0.5 SE 11 13 6 7 1024.0 1023.9 0.8
26/03:00am 11.2 10.0 10.3 94 0.5 SSE 7 9 4 5 1024.0 1023.9 0.8
26/02:30am 10.6 10.5 9.5 93 0.5 CALM 0 0 0 0 1023.9 1023.8 0.6
26/02:00am 10.1 9.9 8.9 92 0.6 CALM 0 0 0 0 1023.8 1023.7 0.6
26/01:30am 11.4 11.5 10.0 91 0.7 CALM 0 0 0 0 1023.9 1023.8 0.6
26/01:00am 11.8 11.1 10.2 90 0.8 SE 4 4 2 2 1024.0 1023.9 0.4
26/12:30am 12.2 10.3 10.4 89 0.9 SSE 11 15 6 8 1024.2 1024.1 0.4
26/12:00am 12.7 9.5 11.1 90 0.8 SSW 19 24 10 13 1024.0 1023.9 0.4
 
Date/Time
CST
Temp
°C
App
Temp
°C
Dew
Point
Rel
Hum
%
Delta-T
°C
Wind Press
QNH
hPa
Press
MSL
hPa
Rain
since 9 am
mm
Dir
 
Spd
km/h
Gust
km/h
Spd
kts
Gust
kts
25/11:30pm 12.8 11.0 10.7 87 1.1 SSW 11 17 6 9 1024.1 1024.0 0.4
25/11:00pm 13.0 10.3 10.4 84 1.3 SSW 15 20 8 11 1024.2 1024.1 0.4
25/10:30pm 13.4 11.4 10.0 80 1.7 SSW 11 13 6 7 1024.3 1024.2 0.4
25/10:00pm 13.4 11.6 8.0 70 2.7 SSE 7 9 4 5 1024.0 1023.9 0.4
25/09:30pm 13.3 11.5 8.0 70 2.6 SSE 7 9 4 5 1023.6 1023.5 0.4
25/09:00pm 13.4 11.2 7.8 69 2.7 S 9 11 5 6 1023.4 1023.3 0.4
25/08:30pm 13.4 10.8 7.6 68 2.8 S 11 15 6 8 1023.2 1023.1 0.4
25/08:00pm 13.7 10.1 6.8 63 3.3 S 15 22 8 12 1022.7 1022.6 0.4
25/07:30pm 14.3 10.0 7.8 65 3.2 S 20 30 11 16 1022.4 1022.3 0.4
25/07:00pm 14.5 10.4 8.7 68 2.9 S 20 26 11 14 1022.2 1022.1 0.4
25/06:30pm 14.6 10.9 9.4 71 2.7 S 19 26 10 14 1021.9 1021.8 0.4
25/06:00pm 14.8 10.9 9.6 71 2.7 S 20 28 11 15 1021.5 1021.4 0.4
25/05:30pm 14.9 10.8 10.1 73 2.5 S 22 32 12 17 1021.2 1021.1 0.4
25/05:00pm 15.0 11.5 10.8 76 2.2 S 20 28 11 15 1020.9 1020.8 0.4
25/04:30pm 15.7 11.8 10.9 73 2.5 S 22 35 12 19 1020.5 1020.4 0.4
25/04:00pm 15.5 10.5 10.9 74 2.4 SSW 28 35 15 19 1020.3 1020.2 0.4
25/03:30pm 14.7 9.9 11.5 81 1.7 SSW 28 35 15 19 1020.1 1020.0 0.4
25/03:00pm 14.2 8.8 12.1 87 1.1 S 32 43 17 23 1019.6 1019.5 0.4
25/02:30pm 16.1 11.1 12.1 77 2.2 SSW 30 43 16 23 1019.4 1019.3 0.4
25/02:00pm 15.8 10.0 11.4 75 2.4 SSW 33 44 18 24 1019.1 1019.0 0.4
25/01:30pm 16.6 11.2 12.2 75 2.4 SSW 32 44 17 24 1018.7 1018.6 0.4
25/01:00pm 15.2 9.3 12.5 84 1.5 S 35 44 19 24 1018.9 1018.8 0.4
25/12:30pm 15.5 9.9 12.1 80 1.8 SSW 33 44 18 24 1018.9 1018.8 0.4
25/12:00pm 15.2 8.5 12.3 83 1.6 S 39 52 21 28 1018.9 1018.8 0.4
25/11:30am 15.7 10.2 12.6 82 1.7 S 33 46 18 25 1018.7 1018.6 0.4
25/11:00am 14.3 9.1 12.7 90 0.9 S 32 50 17 27 1018.6 1018.5 0.2
25/10:58am 14.3 9.0 12.5 89 1.0 S 32 50 17 27 1018.6 1018.5 0.2
25/10:30am 15.3 9.7 13.2 87 1.2 SSW 35 50 19 27 1017.9 1017.9 0.0
25/10:00am 15.1 9.6 12.6 85 1.4 SSW 33 48 18 26 1017.7 1017.7 0.0
25/09:30am 14.9 9.7 12.9 88 1.1 SSW 32 43 17 23 1017.3 1017.3 0.0
25/09:00am 14.5 8.7 12.7 89 1.0 SSW 35 46 19 25 1016.8 1016.8 17.8
25/08:30am 14.5 8.3 12.7 89 1.0 SSW 37 48 20 26 1016.4 1016.4 17.4
25/08:00am 13.8 9.4 12.9 94 0.5 SSW 28 39 15 21 1015.8 1015.8 17.2
25/07:30am 13.8 10.0 12.4 91 0.8 S 24 33 13 18 1015.1 1015.1 16.8
25/07:00am 13.6 8.0 12.0 90 0.9 S 33 46 18 25 1014.5 1014.5 16.2
25/06:30am 14.5 8.9 12.0 85 1.4 SSW 33 48 18 26 1014.2 1014.2 15.8
25/06:00am 14.2 6.9 11.7 85 1.3 SSW 41 52 22 28 1013.5 1013.5 15.8
25/05:30am 14.3 7.5 12.0 86 1.2 SSW 39 52 21 28 1012.8 1012.8 15.8
25/05:00am 14.4 6.6 11.7 84 1.5 SSW 44 65 24 35 1012.4 1012.4 15.8
25/04:59am 14.4 6.6 11.7 84 1.5 SSW 44 65 24 35 1012.3 1012.3 15.8
25/04:30am 13.9 6.8 12.3 90 0.9 SSW 41 57 22 31 1011.7 1011.7 15.6
25/04:00am 13.7 6.2 12.6 93 0.6 SSW 44 57 24 31 1011.5 1011.5 15.6
25/03:45am 14.2 7.7 12.8 91 0.8 SSW 39 57 21 31 1011.3 1011.3 15.4
25/03:30am 14.4 7.5 11.7 84 1.5 SSW 39 52 21 28 1011.1 1011.1 15.4
25/03:00am 14.4 6.8 11.7 84 1.5 SSW 43 57 23 31 1010.9 1010.9 15.0
25/02:30am 14.7 7.1 11.8 83 1.6 SW 43 59 23 32 1010.5 1010.5 15.0
25/02:00am 14.5 6.4 12.0 85 1.4 SSW 46 61 25 33 1010.1 1010.1 15.0
25/01:30am 14.0 7.0 12.4 90 0.9 SSW 41 59 22 32 1009.9 1009.9 14.4
25/01:00am 14.3 5.9 12.3 88 1.1 SW 48 67 26 36 1009.5 1009.5 14.0
25/12:30am 14.0 4.1 12.4 90 0.9 SW 56 78 30 42 1009.0 1009.0 13.8
25/12:20am 14.7 5.4 11.8 83 1.6 SW 52 70 28 38 1008.8 1008.8 13.4
25/12:00am 14.5 4.4 11.8 84 1.5 SW 56 70 30 38 1008.5 1008.5 13.4
 
Date/Time
CST
Temp
°C
App
Temp
°C
Dew
Point
Rel
Hum
%
Delta-T
°C
Wind Press
QNH
hPa
Press
MSL
hPa
Rain
since 9 am
mm
Dir
 
Spd
km/h
Gust
km/h
Spd
kts
Gust
kts
24/11:39pm 14.0 4.3 11.7 86 1.2 SW 54 72 29 39 1008.5 1008.5 13.0
24/11:30pm 14.2 4.5 11.9 86 1.2 SW 54 70 29 38 1008.4 1008.4 12.8
24/11:00pm 13.9 3.8 11.8 87 1.1 WSW 56 74 30 40 1008.5 1008.5 12.8
24/10:30pm 14.1 3.8 10.9 81 1.7 WSW 56 80 30 43 1008.1 1008.1 12.8
24/10:03pm 13.9 4.8 11.2 84 1.4 WSW 50 82 27 44 1008.0 1008.0 12.8
24/10:00pm 14.0 5.0 11.5 85 1.3 WSW 50 67 27 36 1008.1 1008.1 12.8
24/09:30pm 13.2 3.5 13.0 99 0.1 SW 56 76 30 41 1007.9 1007.9 12.6
24/09:08pm 12.1 3.2 11.9 99 0.1 SW 50 69 27 37 1007.6 1007.6 11.4
24/09:00pm 12.9 3.9 12.7 99 0.1 SW 52 65 28 35 1007.8 1007.8 9.8
24/08:30pm 13.3 3.1 11.5 89 1.0 WSW 56 76 30 41 1007.5 1007.5 3.4
24/08:03pm 13.8 2.9 10.8 82 1.6 WSW 59 83 32 45 1007.3 1007.3 2.4
24/08:00pm 13.7 3.1 10.7 82 1.6 WSW 57 76 31 41 1007.3 1007.3 2.4
24/07:30pm 14.1 3.0 10.1 77 2.1 WSW 59 80 32 43 1007.3 1007.3 2.4
24/07:00pm 13.5 2.7 10.1 80 1.8 WSW 57 78 31 42 1007.5 1007.5 2.4
24/06:30pm 13.4 3.7 10.4 82 1.6 W 52 70 28 38 1007.3 1007.3 2.2
24/06:02pm 12.9 3.8 9.9 82 1.5 W 48 69 26 37 1007.6 1007.6 1.8
24/06:00pm 13.3 3.8 9.9 80 1.8 W 50 69 27 37 1007.6 1007.6 1.8
24/05:31pm 13.1 3.9 9.4 78 1.9 W 48 74 26 40 1008.1 1008.1 1.4
24/05:30pm 13.2 4.0 9.5 78 1.9 W 48 65 26 35 1008.1 1008.1 1.4
24/05:00pm 12.6 4.6 8.9 78 1.9 W 41 63 22 34 1008.3 1008.3 1.2
24/04:30pm 13.1 4.3 8.0 71 2.5 W 44 63 24 34 1008.5 1008.5 1.0
24/04:08pm 14.8 5.8 6.6 58 4.0 W 43 61 23 33 1008.8 1008.8 0.8
24/04:00pm 14.8 4.7 5.6 54 4.4 W 48 63 26 34 1009.0 1009.0 0.8
24/03:38pm 14.4 5.1 6.0 57 4.0 W 44 63 24 34 1009.1 1009.1 0.8
24/03:30pm 14.9 5.9 6.2 56 4.2 W 43 59 23 32 1009.1 1009.1 0.8
24/03:00pm 14.1 5.9 6.5 60 3.7 W 39 59 21 32 1009.4 1009.4 0.8
24/02:47pm 13.8 5.9 7.8 67 3.0 W 39 57 21 31 1009.5 1009.5 0.8
24/02:30pm 12.8 5.0 8.1 73 2.3 WSW 39 56 21 30 1009.8 1009.8 0.8
24/02:27pm 14.2 6.5 7.0 62 3.5 WSW 37 56 20 30 1009.6 1009.6 0.8
24/02:00pm 14.1 8.2 7.4 64 3.3 W 28 41 15 22 1009.9 1009.9 0.8
24/01:30pm 13.5 5.9 7.5 67 2.9 WSW 37 48 20 26 1010.4 1010.4 0.8
24/01:00pm 14.2 7.3 7.3 63 3.4 WSW 33 46 18 25 1010.5 1010.5 0.8
24/12:30pm 14.1 6.7 6.7 61 3.6 WSW 35 48 19 26 1010.9 1010.9 0.8
24/12:00pm 14.5 8.3 8.0 65 3.2 W 30 43 16 23 1011.2 1011.2 0.8
24/11:30am 13.3 9.0 9.2 76 2.1 WSW 22 32 12 17 1011.4 1011.4 0.8
24/11:10am 13.7 6.9 7.7 67 3.0 WSW 33 57 18 31 1011.7 1011.7 0.0
24/11:00am 13.6 6.9 7.2 65 3.1 WSW 32 43 17 23 1011.6 1011.6 0.0
24/10:35am 13.9 7.4 8.3 69 2.8 SW 32 52 17 28 1011.6 1011.6 0.0
24/10:30am 13.6 6.1 7.8 68 2.9 SW 37 52 20 28 1011.6 1011.6 0.0
24/10:08am 14.0 7.1 7.1 63 3.4 WSW 33 54 18 29 1011.5 1011.5 0.0
24/10:00am 14.2 6.7 6.3 59 3.8 WSW 35 46 19 25 1011.4 1011.4 0.0
24/09:46am 14.3 6.8 7.8 65 3.2 SW 37 56 20 30 1011.4 1011.4 0.0

Other Formats:

Comma delimited format used in spreadsheet applications
http://www.bom.gov.au/fwo/IDS60801/IDS60801.94658.axf

JavaScript Object Notation format (JSON) in row-major order
http://www.bom.gov.au/fwo/IDS60801/IDS60801.94658.json